sensor_id;sensor_type;location;lat;lon;timestamp;P1;durP1;ratioP1;P2;durP2;ratioP2
33672;SDS011;20011;51.510;9.942;2022-12-07T00:01:19;15.02;;;8.88;;
33672;SDS011;20011;51.510;9.942;2022-12-07T00:06:17;13.85;;;8.35;;
33672;SDS011;20011;51.510;9.942;2022-12-07T00:08:45;11.55;;;7.93;;
33672;SDS011;20011;51.510;9.942;2022-12-07T00:11:14;12.82;;;7.80;;
33672;SDS011;20011;51.510;9.942;2022-12-07T00:13:43;11.07;;;7.75;;
33672;SDS011;20011;51.510;9.942;2022-12-07T00:16:17;11.82;;;8.30;;
33672;SDS011;20011;51.510;9.942;2022-12-07T00:18:45;13.73;;;7.65;;
33672;SDS011;20011;51.510;9.942;2022-12-07T00:21:14;14.63;;;8.13;;
33672;SDS011;20011;51.510;9.942;2022-12-07T00:23:43;12.80;;;7.97;;
33672;SDS011;20011;51.510;9.942;2022-12-07T00:26:12;11.88;;;7.72;;
33672;SDS011;20011;51.510;9.942;2022-12-07T00:28:50;15.82;;;7.63;;
33672;SDS011;20011;51.510;9.942;2022-12-07T00:31:19;14.63;;;8.20;;
33672;SDS011;20011;51.510;9.942;2022-12-07T00:33:47;15.95;;;9.27;;
33672;SDS011;20011;51.510;9.942;2022-12-07T00:36:16;10.73;;;7.85;;
33672;SDS011;20011;51.510;9.942;2022-12-07T00:38:51;11.30;;;7.45;;
33672;SDS011;20011;51.510;9.942;2022-12-07T00:41:19;13.50;;;8.45;;
33672;SDS011;20011;51.510;9.942;2022-12-07T00:43:48;12.13;;;8.67;;
33672;SDS011;20011;51.510;9.942;2022-12-07T00:46:16;11.32;;;7.88;;
33672;SDS011;20011;51.510;9.942;2022-12-07T00:48:44;12.40;;;8.43;;
33672;SDS011;20011;51.510;9.942;2022-12-07T00:51:12;11.55;;;7.95;;
33672;SDS011;20011;51.510;9.942;2022-12-07T00:53:41;13.88;;;8.55;;
33672;SDS011;20011;51.510;9.942;2022-12-07T00:56:09;13.35;;;7.90;;
33672;SDS011;20011;51.510;9.942;2022-12-07T00:58:38;14.13;;;8.35;;
33672;SDS011;20011;51.510;9.942;2022-12-07T01:01:06;13.05;;;8.35;;
33672;SDS011;20011;51.510;9.942;2022-12-07T01:03:34;11.13;;;7.95;;
33672;SDS011;20011;51.510;9.942;2022-12-07T01:06:02;13.40;;;8.50;;
33672;SDS011;20011;51.510;9.942;2022-12-07T01:08:29;13.65;;;8.82;;
33672;SDS011;20011;51.510;9.942;2022-12-07T01:10:58;14.27;;;9.05;;
33672;SDS011;20011;51.510;9.942;2022-12-07T01:13:30;12.95;;;8.95;;
33672;SDS011;20011;51.510;9.942;2022-12-07T01:15:58;10.85;;;7.38;;
33672;SDS011;20011;51.510;9.942;2022-12-07T01:18:27;11.30;;;8.05;;
33672;SDS011;20011;51.510;9.942;2022-12-07T01:20:59;13.50;;;7.82;;
33672;SDS011;20011;51.510;9.942;2022-12-07T01:23:31;11.68;;;8.02;;
33672;SDS011;20011;51.510;9.942;2022-12-07T01:26:00;11.80;;;8.00;;
33672;SDS011;20011;51.510;9.942;2022-12-07T01:28:30;13.25;;;8.52;;
33672;SDS011;20011;51.510;9.942;2022-12-07T01:33:26;20.85;;;9.30;;
33672;SDS011;20011;51.510;9.942;2022-12-07T01:35:53;13.32;;;8.93;;
33672;SDS011;20011;51.510;9.942;2022-12-07T01:38:21;12.45;;;8.88;;
33672;SDS011;20011;51.510;9.942;2022-12-07T01:40:53;14.65;;;9.50;;
33672;SDS011;20011;51.510;9.942;2022-12-07T01:43:21;20.45;;;8.85;;
33672;SDS011;20011;51.510;9.942;2022-12-07T01:45:50;14.02;;;9.23;;
33672;SDS011;20011;51.510;9.942;2022-12-07T01:48:18;13.23;;;8.95;;
33672;SDS011;20011;51.510;9.942;2022-12-07T01:51:09;14.38;;;10.43;;
33672;SDS011;20011;51.510;9.942;2022-12-07T01:53:38;16.90;;;10.13;;
33672;SDS011;20011;51.510;9.942;2022-12-07T01:56:09;14.07;;;8.77;;
33672;SDS011;20011;51.510;9.942;2022-12-07T01:58:38;16.90;;;9.50;;
33672;SDS011;20011;51.510;9.942;2022-12-07T02:01:05;13.45;;;8.38;;
33672;SDS011;20011;51.510;9.942;2022-12-07T02:03:40;13.40;;;9.15;;
33672;SDS011;20011;51.510;9.942;2022-12-07T02:06:09;16.08;;;9.80;;
33672;SDS011;20011;51.510;9.942;2022-12-07T02:08:39;13.63;;;9.77;;
33672;SDS011;20011;51.510;9.942;2022-12-07T02:11:07;15.80;;;9.68;;
33672;SDS011;20011;51.510;9.942;2022-12-07T02:13:35;13.07;;;9.40;;
33672;SDS011;20011;51.510;9.942;2022-12-07T02:18:41;33.30;;;10.10;;
33672;SDS011;20011;51.510;9.942;2022-12-07T02:21:51;13.70;;;9.63;;
33672;SDS011;20011;51.510;9.942;2022-12-07T02:24:45;17.15;;;10.65;;
33672;SDS011;20011;51.510;9.942;2022-12-07T02:30:20;14.35;;;9.55;;
33672;SDS011;20011;51.510;9.942;2022-12-07T02:33:05;14.77;;;9.48;;
33672;SDS011;20011;51.510;9.942;2022-12-07T02:35:47;13.73;;;9.07;;
33672;SDS011;20011;51.510;9.942;2022-12-07T02:43:18;14.30;;;9.57;;
33672;SDS011;20011;51.510;9.942;2022-12-07T02:45:50;11.57;;;8.57;;
33672;SDS011;20011;51.510;9.942;2022-12-07T02:48:19;13.57;;;9.30;;
33672;SDS011;20011;51.510;9.942;2022-12-07T02:50:51;19.85;;;9.25;;
33672;SDS011;20011;51.510;9.942;2022-12-07T02:56:03;14.80;;;8.38;;
33672;SDS011;20011;51.510;9.942;2022-12-07T03:13:10;13.60;;;9.15;;
33672;SDS011;20011;51.510;9.942;2022-12-07T03:18:54;10.90;;;8.43;;
33672;SDS011;20011;51.510;9.942;2022-12-07T03:21:25;12.15;;;8.35;;
33672;SDS011;20011;51.510;9.942;2022-12-07T03:23:58;13.63;;;9.18;;
33672;SDS011;20011;51.510;9.942;2022-12-07T03:26:36;13.48;;;9.48;;
33672;SDS011;20011;51.510;9.942;2022-12-07T03:29:16;13.70;;;8.65;;
33672;SDS011;20011;51.510;9.942;2022-12-07T03:31:52;12.40;;;8.75;;
33672;SDS011;20011;51.510;9.942;2022-12-07T03:34:34;12.68;;;8.77;;
33672;SDS011;20011;51.510;9.942;2022-12-07T03:37:08;17.35;;;9.88;;
33672;SDS011;20011;51.510;9.942;2022-12-07T03:39:46;12.93;;;9.07;;
33672;SDS011;20011;51.510;9.942;2022-12-07T03:42:21;11.70;;;8.63;;
33672;SDS011;20011;51.510;9.942;2022-12-07T03:44:48;12.25;;;8.38;;
33672;SDS011;20011;51.510;9.942;2022-12-07T03:47:20;13.32;;;9.27;;
33672;SDS011;20011;51.510;9.942;2022-12-07T03:50:01;13.20;;;9.18;;
33672;SDS011;20011;51.510;9.942;2022-12-07T03:52:44;14.60;;;8.43;;
33672;SDS011;20011;51.510;9.942;2022-12-07T03:55:14;11.25;;;7.97;;
33672;SDS011;20011;51.510;9.942;2022-12-07T03:57:50;12.07;;;8.88;;
33672;SDS011;20011;51.510;9.942;2022-12-07T04:00:20;12.25;;;7.72;;
33672;SDS011;20011;51.510;9.942;2022-12-07T04:02:48;11.98;;;8.25;;
33672;SDS011;20011;51.510;9.942;2022-12-07T04:05:19;12.02;;;8.20;;
33672;SDS011;20011;51.510;9.942;2022-12-07T04:07:46;9.40;;;7.32;;
33672;SDS011;20011;51.510;9.942;2022-12-07T04:10:13;11.20;;;7.07;;
33672;SDS011;20011;51.510;9.942;2022-12-07T04:12:41;10.00;;;7.22;;
33672;SDS011;20011;51.510;9.942;2022-12-07T04:15:08;11.25;;;7.13;;
33672;SDS011;20011;51.510;9.942;2022-12-07T04:17:36;10.85;;;7.60;;
33672;SDS011;20011;51.510;9.942;2022-12-07T04:20:03;10.52;;;7.45;;
33672;SDS011;20011;51.510;9.942;2022-12-07T04:22:31;11.75;;;8.10;;
33672;SDS011;20011;51.510;9.942;2022-12-07T04:24:58;11.52;;;7.68;;
33672;SDS011;20011;51.510;9.942;2022-12-07T04:27:26;10.85;;;7.85;;
33672;SDS011;20011;51.510;9.942;2022-12-07T04:29:53;12.75;;;9.02;;
33672;SDS011;20011;51.510;9.942;2022-12-07T04:32:22;13.02;;;9.00;;
33672;SDS011;20011;51.510;9.942;2022-12-07T04:34:49;13.23;;;8.88;;
33672;SDS011;20011;51.510;9.942;2022-12-07T04:37:21;12.57;;;9.00;;
33672;SDS011;20011;51.510;9.942;2022-12-07T04:39:48;13.48;;;9.00;;
33672;SDS011;20011;51.510;9.942;2022-12-07T04:42:16;15.00;;;9.88;;
33672;SDS011;20011;51.510;9.942;2022-12-07T04:44:43;16.52;;;11.20;;
33672;SDS011;20011;51.510;9.942;2022-12-07T04:47:10;14.50;;;10.13;;
33672;SDS011;20011;51.510;9.942;2022-12-07T04:49:38;13.43;;;9.25;;
33672;SDS011;20011;51.510;9.942;2022-12-07T04:52:05;15.57;;;10.52;;
33672;SDS011;20011;51.510;9.942;2022-12-07T04:54:33;17.10;;;10.70;;
33672;SDS011;20011;51.510;9.942;2022-12-07T04:57:00;15.20;;;10.57;;
33672;SDS011;20011;51.510;9.942;2022-12-07T04:59:27;17.75;;;11.02;;
33672;SDS011;20011;51.510;9.942;2022-12-07T05:01:55;14.75;;;10.50;;
33672;SDS011;20011;51.510;9.942;2022-12-07T05:04:22;17.63;;;11.27;;
33672;SDS011;20011;51.510;9.942;2022-12-07T05:06:49;18.58;;;11.25;;
33672;SDS011;20011;51.510;9.942;2022-12-07T05:09:17;18.67;;;11.23;;
33672;SDS011;20011;51.510;9.942;2022-12-07T05:11:48;19.92;;;11.38;;
33672;SDS011;20011;51.510;9.942;2022-12-07T05:14:18;15.07;;;10.40;;
33672;SDS011;20011;51.510;9.942;2022-12-07T05:16:48;16.77;;;11.20;;
33672;SDS011;20011;51.510;9.942;2022-12-07T05:19:17;20.67;;;10.93;;
33672;SDS011;20011;51.510;9.942;2022-12-07T05:21:45;18.67;;;11.40;;
33672;SDS011;20011;51.510;9.942;2022-12-07T05:24:13;16.42;;;10.52;;
33672;SDS011;20011;51.510;9.942;2022-12-07T05:26:41;20.08;;;12.23;;
33672;SDS011;20011;51.510;9.942;2022-12-07T05:29:10;20.13;;;11.57;;
33672;SDS011;20011;51.510;9.942;2022-12-07T05:31:41;20.00;;;11.25;;
33672;SDS011;20011;51.510;9.942;2022-12-07T05:34:09;16.17;;;11.48;;
33672;SDS011;20011;51.510;9.942;2022-12-07T05:36:36;22.10;;;12.18;;
33672;SDS011;20011;51.510;9.942;2022-12-07T05:39:04;19.70;;;11.98;;
33672;SDS011;20011;51.510;9.942;2022-12-07T05:41:31;18.50;;;10.40;;
33672;SDS011;20011;51.510;9.942;2022-12-07T05:44:17;15.70;;;10.73;;
33672;SDS011;20011;51.510;9.942;2022-12-07T05:46:44;18.67;;;11.82;;
33672;SDS011;20011;51.510;9.942;2022-12-07T05:49:11;15.25;;;11.02;;
33672;SDS011;20011;51.510;9.942;2022-12-07T05:51:39;18.58;;;10.88;;
33672;SDS011;20011;51.510;9.942;2022-12-07T05:54:06;15.52;;;10.35;;
33672;SDS011;20011;51.510;9.942;2022-12-07T05:56:34;15.90;;;9.05;;
33672;SDS011;20011;51.510;9.942;2022-12-07T05:59:01;16.80;;;10.82;;
33672;SDS011;20011;51.510;9.942;2022-12-07T06:01:47;17.30;;;9.30;;
33672;SDS011;20011;51.510;9.942;2022-12-07T06:04:14;21.23;;;9.88;;
33672;SDS011;20011;51.510;9.942;2022-12-07T06:06:42;17.10;;;10.00;;
33672;SDS011;20011;51.510;9.942;2022-12-07T06:09:10;16.27;;;9.88;;
33672;SDS011;20011;51.510;9.942;2022-12-07T06:11:39;16.88;;;9.13;;
33672;SDS011;20011;51.510;9.942;2022-12-07T06:14:25;13.23;;;9.20;;
33672;SDS011;20011;51.510;9.942;2022-12-07T06:16:53;20.65;;;9.93;;
33672;SDS011;20011;51.510;9.942;2022-12-07T06:19:21;13.80;;;8.30;;
33672;SDS011;20011;51.510;9.942;2022-12-07T06:21:51;18.17;;;8.55;;
33672;SDS011;20011;51.510;9.942;2022-12-07T06:24:29;15.60;;;8.40;;
33672;SDS011;20011;51.510;9.942;2022-12-07T06:27:34;19.45;;;8.43;;
33672;SDS011;20011;51.510;9.942;2022-12-07T06:30:02;11.93;;;7.97;;
33672;SDS011;20011;51.510;9.942;2022-12-07T06:32:33;13.68;;;7.90;;
33672;SDS011;20011;51.510;9.942;2022-12-07T06:35:00;19.48;;;8.40;;
33672;SDS011;20011;51.510;9.942;2022-12-07T06:37:28;21.27;;;8.52;;
33672;SDS011;20011;51.510;9.942;2022-12-07T06:39:55;14.63;;;8.57;;
33672;SDS011;20011;51.510;9.942;2022-12-07T06:42:23;11.77;;;7.75;;
33672;SDS011;20011;51.510;9.942;2022-12-07T06:44:50;15.20;;;7.40;;
33672;SDS011;20011;51.510;9.942;2022-12-07T06:47:17;20.17;;;10.38;;
33672;SDS011;20011;51.510;9.942;2022-12-07T06:50:05;14.85;;;7.03;;
33672;SDS011;20011;51.510;9.942;2022-12-07T06:52:34;14.50;;;7.45;;
33672;SDS011;20011;51.510;9.942;2022-12-07T06:55:03;16.02;;;6.68;;
33672;SDS011;20011;51.510;9.942;2022-12-07T06:57:42;16.50;;;6.72;;
33672;SDS011;20011;51.510;9.942;2022-12-07T07:00:16;11.25;;;6.65;;
33672;SDS011;20011;51.510;9.942;2022-12-07T07:02:53;9.68;;;6.63;;
33672;SDS011;20011;51.510;9.942;2022-12-07T07:05:33;15.63;;;6.88;;
33672;SDS011;20011;51.510;9.942;2022-12-07T07:08:04;14.60;;;7.55;;
33672;SDS011;20011;51.510;9.942;2022-12-07T07:10:53;17.25;;;6.82;;
33672;SDS011;20011;51.510;9.942;2022-12-07T07:16:01;11.55;;;7.63;;
33672;SDS011;20011;51.510;9.942;2022-12-07T07:18:42;18.00;;;7.68;;
33672;SDS011;20011;51.510;9.942;2022-12-07T07:21:10;11.90;;;6.95;;
33672;SDS011;20011;51.510;9.942;2022-12-07T07:23:40;14.65;;;6.03;;
33672;SDS011;20011;51.510;9.942;2022-12-07T07:26:07;10.77;;;6.80;;
33672;SDS011;20011;51.510;9.942;2022-12-07T07:28:37;12.60;;;6.80;;
33672;SDS011;20011;51.510;9.942;2022-12-07T07:31:05;11.45;;;7.00;;
33672;SDS011;20011;51.510;9.942;2022-12-07T07:33:39;17.73;;;7.85;;
33672;SDS011;20011;51.510;9.942;2022-12-07T07:36:09;15.32;;;7.35;;
33672;SDS011;20011;51.510;9.942;2022-12-07T07:38:59;10.70;;;6.82;;
33672;SDS011;20011;51.510;9.942;2022-12-07T07:41:33;15.65;;;6.95;;
33672;SDS011;20011;51.510;9.942;2022-12-07T07:44:34;13.48;;;7.13;;
33672;SDS011;20011;51.510;9.942;2022-12-07T07:47:12;13.95;;;6.97;;
33672;SDS011;20011;51.510;9.942;2022-12-07T07:49:43;18.05;;;7.30;;
33672;SDS011;20011;51.510;9.942;2022-12-07T07:52:19;17.23;;;6.68;;
33672;SDS011;20011;51.510;9.942;2022-12-07T07:55:01;11.02;;;6.78;;
33672;SDS011;20011;51.510;9.942;2022-12-07T07:57:47;14.80;;;6.47;;
33672;SDS011;20011;51.510;9.942;2022-12-07T08:01:11;10.82;;;6.43;;
33672;SDS011;20011;51.510;9.942;2022-12-07T08:03:51;10.32;;;6.35;;
33672;SDS011;20011;51.510;9.942;2022-12-07T08:10:18;11.90;;;6.43;;
33672;SDS011;20011;51.510;9.942;2022-12-07T08:12:59;9.23;;;6.15;;
33672;SDS011;20011;51.510;9.942;2022-12-07T08:15:53;11.05;;;5.50;;
33672;SDS011;20011;51.510;9.942;2022-12-07T08:18:23;14.55;;;5.28;;
33672;SDS011;20011;51.510;9.942;2022-12-07T08:21:00;11.68;;;6.20;;
33672;SDS011;20011;51.510;9.942;2022-12-07T08:23:35;12.35;;;5.18;;
33672;SDS011;20011;51.510;9.942;2022-12-07T08:26:25;13.95;;;5.32;;
33672;SDS011;20011;51.510;9.942;2022-12-07T08:28:55;15.80;;;5.30;;
33672;SDS011;20011;51.510;9.942;2022-12-07T08:31:26;8.52;;;5.50;;
33672;SDS011;20011;51.510;9.942;2022-12-07T08:34:05;11.90;;;5.25;;
33672;SDS011;20011;51.510;9.942;2022-12-07T08:36:41;8.82;;;4.95;;
33672;SDS011;20011;51.510;9.942;2022-12-07T08:39:40;9.38;;;4.65;;
33672;SDS011;20011;51.510;9.942;2022-12-07T08:42:28;18.77;;;6.13;;
33672;SDS011;20011;51.510;9.942;2022-12-07T08:45:11;17.27;;;5.85;;
33672;SDS011;20011;51.510;9.942;2022-12-07T08:48:00;8.25;;;4.53;;
33672;SDS011;20011;51.510;9.942;2022-12-07T08:50:52;14.13;;;5.72;;
33672;SDS011;20011;51.510;9.942;2022-12-07T08:53:51;11.18;;;5.85;;
33672;SDS011;20011;51.510;9.942;2022-12-07T08:56:20;9.82;;;4.80;;
33672;SDS011;20011;51.510;9.942;2022-12-07T08:58:54;8.35;;;4.90;;
33672;SDS011;20011;51.510;9.942;2022-12-07T09:01:33;14.10;;;5.10;;
33672;SDS011;20011;51.510;9.942;2022-12-07T09:04:00;11.15;;;5.10;;
33672;SDS011;20011;51.510;9.942;2022-12-07T09:06:30;11.90;;;5.45;;
33672;SDS011;20011;51.510;9.942;2022-12-07T09:09:32;11.13;;;5.30;;
33672;SDS011;20011;51.510;9.942;2022-12-07T09:12:07;10.48;;;5.38;;
33672;SDS011;20011;51.510;9.942;2022-12-07T09:14:34;8.70;;;5.38;;
33672;SDS011;20011;51.510;9.942;2022-12-07T09:17:12;9.98;;;5.28;;
33672;SDS011;20011;51.510;9.942;2022-12-07T09:19:57;9.85;;;5.68;;
33672;SDS011;20011;51.510;9.942;2022-12-07T09:22:33;13.63;;;5.43;;
33672;SDS011;20011;51.510;9.942;2022-12-07T09:25:10;11.02;;;5.65;;
33672;SDS011;20011;51.510;9.942;2022-12-07T09:27:59;11.32;;;5.80;;
33672;SDS011;20011;51.510;9.942;2022-12-07T09:31:01;10.93;;;5.85;;
33672;SDS011;20011;51.510;9.942;2022-12-07T09:34:17;16.40;;;5.50;;
33672;SDS011;20011;51.510;9.942;2022-12-07T09:37:17;9.10;;;5.95;;
33672;SDS011;20011;51.510;9.942;2022-12-07T09:39:45;12.23;;;5.05;;
33672;SDS011;20011;51.510;9.942;2022-12-07T09:42:24;8.40;;;5.10;;
33672;SDS011;20011;51.510;9.942;2022-12-07T09:44:59;6.85;;;4.43;;
33672;SDS011;20011;51.510;9.942;2022-12-07T09:47:26;9.52;;;4.70;;
33672;SDS011;20011;51.510;9.942;2022-12-07T09:49:57;10.73;;;4.75;;
33672;SDS011;20011;51.510;9.942;2022-12-07T09:52:32;7.30;;;4.90;;
33672;SDS011;20011;51.510;9.942;2022-12-07T09:55:09;13.52;;;4.75;;
33672;SDS011;20011;51.510;9.942;2022-12-07T09:57:40;11.27;;;5.40;;
33672;SDS011;20011;51.510;9.942;2022-12-07T10:00:14;16.67;;;4.75;;
33672;SDS011;20011;51.510;9.942;2022-12-07T10:05:46;10.90;;;4.45;;
33672;SDS011;20011;51.510;9.942;2022-12-07T10:08:15;8.63;;;4.25;;
33672;SDS011;20011;51.510;9.942;2022-12-07T10:10:44;8.73;;;3.97;;
33672;SDS011;20011;51.510;9.942;2022-12-07T10:13:13;6.68;;;3.70;;
33672;SDS011;20011;51.510;9.942;2022-12-07T10:15:46;13.73;;;4.60;;
33672;SDS011;20011;51.510;9.942;2022-12-07T10:18:40;6.80;;;3.65;;
33672;SDS011;20011;51.510;9.942;2022-12-07T10:23:38;8.85;;;3.88;;
33672;SDS011;20011;51.510;9.942;2022-12-07T10:26:31;11.38;;;4.38;;
33672;SDS011;20011;51.510;9.942;2022-12-07T10:29:13;10.85;;;4.20;;
33672;SDS011;20011;51.510;9.942;2022-12-07T10:31:49;8.27;;;4.28;;
33672;SDS011;20011;51.510;9.942;2022-12-07T10:34:31;9.73;;;3.88;;
33672;SDS011;20011;51.510;9.942;2022-12-07T10:37:16;8.88;;;3.95;;
33672;SDS011;20011;51.510;9.942;2022-12-07T10:39:55;13.30;;;4.87;;
33672;SDS011;20011;51.510;9.942;2022-12-07T10:47:36;10.75;;;4.95;;
33672;SDS011;20011;51.510;9.942;2022-12-07T10:50:19;6.55;;;4.05;;
33672;SDS011;20011;51.510;9.942;2022-12-07T10:55:54;8.52;;;3.55;;
33672;SDS011;20011;51.510;9.942;2022-12-07T11:06:47;5.15;;;3.65;;
33672;SDS011;20011;51.510;9.942;2022-12-07T11:15:34;11.13;;;3.78;;
33672;SDS011;20011;51.510;9.942;2022-12-07T11:37:13;9.80;;;3.22;;
33672;SDS011;20011;51.510;9.942;2022-12-07T11:39:50;9.10;;;3.35;;
33672;SDS011;20011;51.510;9.942;2022-12-07T11:42:25;8.43;;;3.80;;
33672;SDS011;20011;51.510;9.942;2022-12-07T11:44:59;9.80;;;3.40;;
33672;SDS011;20011;51.510;9.942;2022-12-07T11:47:57;16.60;;;6.00;;
33672;SDS011;20011;51.510;9.942;2022-12-07T11:50:45;7.68;;;3.30;;
33672;SDS011;20011;51.510;9.942;2022-12-07T11:53:20;5.18;;;3.25;;
33672;SDS011;20011;51.510;9.942;2022-12-07T12:06:33;13.32;;;3.20;;
33672;SDS011;20011;51.510;9.942;2022-12-07T12:09:05;5.10;;;2.97;;
33672;SDS011;20011;51.510;9.942;2022-12-07T12:25:37;13.00;;;3.45;;
33672;SDS011;20011;51.510;9.942;2022-12-07T12:33:37;13.95;;;3.05;;
33672;SDS011;20011;51.510;9.942;2022-12-07T12:38:50;9.82;;;3.28;;
33672;SDS011;20011;51.510;9.942;2022-12-07T12:44:00;4.78;;;2.33;;
33672;SDS011;20011;51.510;9.942;2022-12-07T12:51:46;9.70;;;2.67;;
33672;SDS011;20011;51.510;9.942;2022-12-07T12:54:37;11.30;;;3.22;;
33672;SDS011;20011;51.510;9.942;2022-12-07T12:57:09;8.52;;;3.25;;
33672;SDS011;20011;51.510;9.942;2022-12-07T12:59:58;8.98;;;3.00;;
33672;SDS011;20011;51.510;9.942;2022-12-07T13:02:47;7.00;;;3.35;;
33672;SDS011;20011;51.510;9.942;2022-12-07T13:05:20;13.02;;;3.70;;
33672;SDS011;20011;51.510;9.942;2022-12-07T13:07:58;6.20;;;3.25;;
33672;SDS011;20011;51.510;9.942;2022-12-07T13:20:55;7.43;;;3.13;;
33672;SDS011;20011;51.510;9.942;2022-12-07T13:23:33;6.78;;;3.00;;
33672;SDS011;20011;51.510;9.942;2022-12-07T13:28:47;8.90;;;2.95;;
33672;SDS011;20011;51.510;9.942;2022-12-07T13:33:47;7.65;;;3.17;;
33672;SDS011;20011;51.510;9.942;2022-12-07T13:36:33;5.55;;;2.75;;
33672;SDS011;20011;51.510;9.942;2022-12-07T13:39:19;10.73;;;3.50;;
33672;SDS011;20011;51.510;9.942;2022-12-07T13:41:51;8.80;;;3.17;;
33672;SDS011;20011;51.510;9.942;2022-12-07T13:44:23;8.77;;;4.13;;
33672;SDS011;20011;51.510;9.942;2022-12-07T13:46:59;6.78;;;4.10;;
33672;SDS011;20011;51.510;9.942;2022-12-07T13:49:38;14.68;;;3.45;;
33672;SDS011;20011;51.510;9.942;2022-12-07T13:52:26;9.88;;;3.47;;
33672;SDS011;20011;51.510;9.942;2022-12-07T13:57:22;8.23;;;2.85;;
33672;SDS011;20011;51.510;9.942;2022-12-07T13:59:51;8.73;;;4.00;;
33672;SDS011;20011;51.510;9.942;2022-12-07T14:02:20;11.57;;;3.85;;
33672;SDS011;20011;51.510;9.942;2022-12-07T14:07:34;7.60;;;3.50;;
33672;SDS011;20011;51.510;9.942;2022-12-07T14:10:04;12.90;;;3.70;;
33672;SDS011;20011;51.510;9.942;2022-12-07T14:12:35;7.95;;;3.03;;
33672;SDS011;20011;51.510;9.942;2022-12-07T14:15:03;15.77;;;3.08;;
33672;SDS011;20011;51.510;9.942;2022-12-07T14:17:32;7.75;;;3.47;;
33672;SDS011;20011;51.510;9.942;2022-12-07T14:20:00;10.65;;;3.40;;
33672;SDS011;20011;51.510;9.942;2022-12-07T14:22:31;10.25;;;3.65;;
33672;SDS011;20011;51.510;9.942;2022-12-07T14:27:47;11.73;;;3.20;;
33672;SDS011;20011;51.510;9.942;2022-12-07T14:30:29;6.80;;;3.42;;
33672;SDS011;20011;51.510;9.942;2022-12-07T14:32:59;12.50;;;4.03;;
33672;SDS011;20011;51.510;9.942;2022-12-07T14:35:27;14.00;;;3.28;;
33672;SDS011;20011;51.510;9.942;2022-12-07T14:37:55;8.05;;;3.35;;
33672;SDS011;20011;51.510;9.942;2022-12-07T14:40:24;10.70;;;3.20;;
33672;SDS011;20011;51.510;9.942;2022-12-07T14:43:08;11.63;;;3.53;;
33672;SDS011;20011;51.510;9.942;2022-12-07T14:45:39;11.77;;;2.90;;
33672;SDS011;20011;51.510;9.942;2022-12-07T14:48:07;8.50;;;3.00;;
33672;SDS011;20011;51.510;9.942;2022-12-07T14:50:58;7.05;;;3.33;;
33672;SDS011;20011;51.510;9.942;2022-12-07T14:53:46;8.30;;;3.03;;
33672;SDS011;20011;51.510;9.942;2022-12-07T14:56:23;6.57;;;2.85;;
33672;SDS011;20011;51.510;9.942;2022-12-07T14:58:51;7.22;;;2.97;;
33672;SDS011;20011;51.510;9.942;2022-12-07T15:01:18;6.35;;;2.75;;
33672;SDS011;20011;51.510;9.942;2022-12-07T15:03:45;6.05;;;2.50;;
33672;SDS011;20011;51.510;9.942;2022-12-07T15:06:15;8.68;;;3.13;;
33672;SDS011;20011;51.510;9.942;2022-12-07T15:08:44;6.57;;;2.53;;
33672;SDS011;20011;51.510;9.942;2022-12-07T15:11:12;9.70;;;2.80;;
33672;SDS011;20011;51.510;9.942;2022-12-07T15:13:40;8.13;;;4.15;;
33672;SDS011;20011;51.510;9.942;2022-12-07T15:16:29;7.68;;;2.80;;
33672;SDS011;20011;51.510;9.942;2022-12-07T15:19:44;10.80;;;3.17;;
33672;SDS011;20011;51.510;9.942;2022-12-07T15:24:38;12.23;;;3.15;;
33672;SDS011;20011;51.510;9.942;2022-12-07T15:27:05;9.20;;;3.65;;
33672;SDS011;20011;51.510;9.942;2022-12-07T15:29:35;7.00;;;2.75;;
33672;SDS011;20011;51.510;9.942;2022-12-07T15:32:03;10.27;;;3.20;;
33672;SDS011;20011;51.510;9.942;2022-12-07T15:34:30;6.57;;;3.00;;
33672;SDS011;20011;51.510;9.942;2022-12-07T15:37:05;9.85;;;3.17;;
33672;SDS011;20011;51.510;9.942;2022-12-07T15:39:32;6.95;;;2.85;;
33672;SDS011;20011;51.510;9.942;2022-12-07T15:42:00;10.60;;;3.63;;
33672;SDS011;20011;51.510;9.942;2022-12-07T15:44:27;11.40;;;4.28;;
33672;SDS011;20011;51.510;9.942;2022-12-07T15:47:13;12.40;;;4.60;;
33672;SDS011;20011;51.510;9.942;2022-12-07T15:49:40;19.02;;;7.65;;
33672;SDS011;20011;51.510;9.942;2022-12-07T15:52:08;31.33;;;15.25;;
33672;SDS011;20011;51.510;9.942;2022-12-07T15:54:35;24.35;;;13.27;;
33672;SDS011;20011;51.510;9.942;2022-12-07T15:57:03;39.28;;;18.63;;
33672;SDS011;20011;51.510;9.942;2022-12-07T15:59:30;32.25;;;14.45;;
33672;SDS011;20011;51.510;9.942;2022-12-07T16:01:58;39.50;;;16.33;;
33672;SDS011;20011;51.510;9.942;2022-12-07T16:04:28;40.25;;;19.55;;
33672;SDS011;20011;51.510;9.942;2022-12-07T16:06:56;29.08;;;14.30;;
33672;SDS011;20011;51.510;9.942;2022-12-07T16:09:23;47.58;;;23.05;;
33672;SDS011;20011;51.510;9.942;2022-12-07T16:11:51;22.60;;;9.60;;
33672;SDS011;20011;51.510;9.942;2022-12-07T16:14:19;13.32;;;6.60;;
33672;SDS011;20011;51.510;9.942;2022-12-07T16:16:46;16.33;;;7.95;;
33672;SDS011;20011;51.510;9.942;2022-12-07T16:19:14;10.00;;;5.80;;
33672;SDS011;20011;51.510;9.942;2022-12-07T16:24:34;15.23;;;7.05;;
33672;SDS011;20011;51.510;9.942;2022-12-07T16:27:01;10.65;;;5.85;;
33672;SDS011;20011;51.510;9.942;2022-12-07T16:29:28;22.52;;;10.50;;
33672;SDS011;20011;51.510;9.942;2022-12-07T16:31:56;16.98;;;9.20;;
33672;SDS011;20011;51.510;9.942;2022-12-07T16:34:23;12.32;;;6.38;;
33672;SDS011;20011;51.510;9.942;2022-12-07T16:36:51;9.70;;;5.32;;
33672;SDS011;20011;51.510;9.942;2022-12-07T16:39:33;14.60;;;5.40;;
33672;SDS011;20011;51.510;9.942;2022-12-07T16:42:01;10.18;;;4.32;;
33672;SDS011;20011;51.510;9.942;2022-12-07T16:44:29;8.43;;;4.55;;
33672;SDS011;20011;51.510;9.942;2022-12-07T16:46:57;11.85;;;5.47;;
33672;SDS011;20011;51.510;9.942;2022-12-07T16:49:26;18.08;;;6.82;;
33672;SDS011;20011;51.510;9.942;2022-12-07T16:51:54;16.05;;;6.63;;
33672;SDS011;20011;51.510;9.942;2022-12-07T16:54:41;15.18;;;7.07;;
33672;SDS011;20011;51.510;9.942;2022-12-07T16:57:09;11.40;;;5.40;;
33672;SDS011;20011;51.510;9.942;2022-12-07T16:59:44;13.05;;;4.88;;
33672;SDS011;20011;51.510;9.942;2022-12-07T17:02:11;9.45;;;4.97;;
33672;SDS011;20011;51.510;9.942;2022-12-07T17:04:39;10.77;;;4.40;;
33672;SDS011;20011;51.510;9.942;2022-12-07T17:07:08;10.63;;;4.80;;
33672;SDS011;20011;51.510;9.942;2022-12-07T17:09:36;16.00;;;4.38;;
33672;SDS011;20011;51.510;9.942;2022-12-07T17:12:03;11.57;;;4.60;;
33672;SDS011;20011;51.510;9.942;2022-12-07T17:14:32;14.57;;;5.22;;
33672;SDS011;20011;51.510;9.942;2022-12-07T17:17:19;12.93;;;5.78;;
33672;SDS011;20011;51.510;9.942;2022-12-07T17:19:46;13.70;;;7.30;;
33672;SDS011;20011;51.510;9.942;2022-12-07T17:22:13;12.80;;;7.45;;
33672;SDS011;20011;51.510;9.942;2022-12-07T17:24:41;18.52;;;8.95;;
33672;SDS011;20011;51.510;9.942;2022-12-07T17:27:08;19.73;;;7.72;;
33672;SDS011;20011;51.510;9.942;2022-12-07T17:29:35;13.60;;;8.23;;
33672;SDS011;20011;51.510;9.942;2022-12-07T17:32:03;20.67;;;7.75;;
33672;SDS011;20011;51.510;9.942;2022-12-07T17:34:31;10.45;;;6.20;;
33672;SDS011;20011;51.510;9.942;2022-12-07T17:36:59;16.52;;;6.40;;
33672;SDS011;20011;51.510;9.942;2022-12-07T17:39:26;13.02;;;6.47;;
33672;SDS011;20011;51.510;9.942;2022-12-07T17:41:54;12.13;;;5.28;;
33672;SDS011;20011;51.510;9.942;2022-12-07T17:44:40;13.20;;;5.50;;
33672;SDS011;20011;51.510;9.942;2022-12-07T17:47:07;11.43;;;5.20;;
33672;SDS011;20011;51.510;9.942;2022-12-07T17:49:36;13.30;;;5.10;;
33672;SDS011;20011;51.510;9.942;2022-12-07T17:52:07;12.98;;;5.35;;